Fort Myers, FL (33913)

5:08 PM EDT on March 29, 2017 (GMT -0400)
Meghan Westminster | | Change Station

Elev 39 ft 26.61 °N, 81.73 °W | Updated 31 seconds ago

Partly Cloudy
Partly Cloudy
86.4 °F
Feels Like 87 °F
N
4.0
Wind Variable Wind from West

Today
High -- | Low -- °F
--% Chance of Precip.
Yesterday
High -- | Low -- °F
Precip. -- in
Pressure 29.96 in
Visibility 10.0 miles
Clouds Few 4500 ft
Heat Index 87 °F
Dew Point 62 °F
Humidity 45%
Rainfall 0.00 in
Snow Depth Not available.
7:20 AM 7:42 PM
Waxing Crescent, 4% visible
METAR KRSW 292053Z 24012KT 220V280 10SM FEW045 28/17 A2996 RMK AO2 SLP144 T02780167 57015
Pressure 29.96 in
Visibility 10.0 miles
Clouds Few 4500 ft
Heat Index 87 °F
Dew Point 62 °F
Humidity 45%
Rainfall 0.00 in
Snow Depth Not available.
7:20 AM 7:42 PM
Waxing Crescent, 4% visible
METAR KRSW 292053Z 24012KT 220V280 10SM FEW045 28/17 A2996 RMK AO2 SLP144 T02780167 57015

Get Severe Weather Alerts

Thanks for signing up!

Be on the lookout for a verification email in your inbox.

You'll start receiving the daily forecast at 8 AM.

×

10-Day Weather Forecast

Almanac

Astronomy

Mar. 29, 2017 Rise Set
Actual Time
Civil Twilight
Nautical Twilight
Astronomical Twilight
Moon
Length of Visible Light
Length of Day
Tomorrow will be .
, % of the Moon is Illuminated

Today's Extremes

State Highs State Lows

Community

WunderPhotos

Upload Photos

1,962,540 photos uploaded!

WunderBlog® & News

Nearby

Air Quality

  Air Quality AQ Index Pollutant
Not available.

Snow Depth

Station Depth Elevation

Earthquake Activity

City Distance Mag. Time & Date
Minimum magnitude displayed is 2.5.

Earthquake Activity

City Distance Mag. Time & Date
Minimum magnitude displayed is 2.5.

Coastal Water Temperatures

Place Temperature

Stations

Nearby Weather Stations

Station Location Temp. Windchill Dew Point Humidity Wind Precip. Elev Updated Type
                   

Watches & Warnings

There are currently no watches in effect.